sensor_id;sensor_type;location;lat;lon;timestamp;pressure;altitude;pressure_sealevel;temperature;humidity
72925;BME280;61070;50.794;7.054;2023-05-29T00:00:02;101198.34;;;16.45;72.09
72925;BME280;61070;50.794;7.054;2023-05-29T00:02:31;101203.31;;;16.26;72.72
72925;BME280;61070;50.794;7.054;2023-05-29T00:04:57;101194.28;;;16.32;72.31
72925;BME280;61070;50.794;7.054;2023-05-29T00:07:22;101198.13;;;16.22;72.91
72925;BME280;61070;50.794;7.054;2023-05-29T00:09:47;101201.53;;;16.27;73.06
72925;BME280;61070;50.794;7.054;2023-05-29T00:12:13;101203.22;;;16.31;72.64
72925;BME280;61070;50.794;7.054;2023-05-29T00:14:38;101207.06;;;16.19;73.14
72925;BME280;61070;50.794;7.054;2023-05-29T00:17:04;101205.97;;;16.28;73.25
72925;BME280;61070;50.794;7.054;2023-05-29T00:19:29;101207.16;;;16.16;73.78
72925;BME280;61070;50.794;7.054;2023-05-29T00:21:54;101200.06;;;16.15;73.87
72925;BME280;61070;50.794;7.054;2023-05-29T00:24:19;101212.66;;;16.12;74.12
72925;BME280;61070;50.794;7.054;2023-05-29T00:26:46;101211.81;;;16.08;74.60
72925;BME280;61070;50.794;7.054;2023-05-29T00:29:11;101214.78;;;15.99;75.03
72925;BME280;61070;50.794;7.054;2023-05-29T00:31:36;101218.22;;;16.02;74.95
72925;BME280;61070;50.794;7.054;2023-05-29T00:34:02;101220.91;;;16.02;74.94
72925;BME280;61070;50.794;7.054;2023-05-29T00:36:27;101216.63;;;15.95;74.95
72925;BME280;61070;50.794;7.054;2023-05-29T00:38:54;101225.50;;;15.97;75.12
72925;BME280;61070;50.794;7.054;2023-05-29T00:41:20;101218.78;;;15.81;76.28
72925;BME280;61070;50.794;7.054;2023-05-29T00:43:45;101221.34;;;15.84;76.31
72925;BME280;61070;50.794;7.054;2023-05-29T00:46:13;101224.50;;;15.66;77.40
72925;BME280;61070;50.794;7.054;2023-05-29T00:48:38;101224.34;;;15.72;77.30
72925;BME280;61070;50.794;7.054;2023-05-29T00:51:04;101225.38;;;15.66;77.13
72925;BME280;61070;50.794;7.054;2023-05-29T00:53:30;101224.50;;;15.66;77.40
72925;BME280;61070;50.794;7.054;2023-05-29T00:55:55;101231.69;;;15.62;77.67
72925;BME280;61070;50.794;7.054;2023-05-29T00:58:21;101226.53;;;15.55;78.13
72925;BME280;61070;50.794;7.054;2023-05-29T01:00:46;101227.75;;;15.79;77.41
72925;BME280;61070;50.794;7.054;2023-05-29T01:03:12;101222.94;;;15.56;78.24
72925;BME280;61070;50.794;7.054;2023-05-29T01:05:42;101220.97;;;15.65;77.83
72925;BME280;61070;50.794;7.054;2023-05-29T01:08:07;101219.56;;;15.48;78.47
72925;BME280;61070;50.794;7.054;2023-05-29T01:10:33;101218.84;;;15.41;79.20
72925;BME280;61070;50.794;7.054;2023-05-29T01:13:07;101217.97;;;15.40;79.10
72925;BME280;61070;50.794;7.054;2023-05-29T01:18:08;101218.09;;;15.34;80.09
72925;BME280;61070;50.794;7.054;2023-05-29T01:20:45;101223.59;;;15.27;80.35
72925;BME280;61070;50.794;7.054;2023-05-29T01:26:20;101236.44;;;15.11;81.09
72925;BME280;61070;50.794;7.054;2023-05-29T01:28:48;101234.66;;;15.10;81.11
72925;BME280;61070;50.794;7.054;2023-05-29T01:31:19;101234.50;;;15.18;81.31
72925;BME280;61070;50.794;7.054;2023-05-29T01:33:52;101230.28;;;15.06;81.50
72925;BME280;61070;50.794;7.054;2023-05-29T01:36:18;101230.41;;;15.01;82.05
72925;BME280;61070;50.794;7.054;2023-05-29T01:38:43;101232.19;;;15.01;82.14
72925;BME280;61070;50.794;7.054;2023-05-29T01:41:09;101227.00;;;14.93;82.29
72925;BME280;61070;50.794;7.054;2023-05-29T01:43:34;101228.66;;;15.00;82.07
72925;BME280;61070;50.794;7.054;2023-05-29T01:46:00;101232.28;;;14.98;82.21
72925;BME280;61070;50.794;7.054;2023-05-29T01:48:27;101235.03;;;14.93;82.38
72925;BME280;61070;50.794;7.054;2023-05-29T01:50:52;101228.00;;;14.89;82.39
72925;BME280;61070;50.794;7.054;2023-05-29T01:53:18;101235.09;;;14.90;82.30
72925;BME280;61070;50.794;7.054;2023-05-29T01:55:43;101233.75;;;14.69;83.55
72925;BME280;61070;50.794;7.054;2023-05-29T01:58:10;101235.72;;;14.60;84.09
72925;BME280;61070;50.794;7.054;2023-05-29T02:00:35;101238.28;;;14.66;83.70
72925;BME280;61070;50.794;7.054;2023-05-29T02:03:01;101240.81;;;14.70;83.36
72925;BME280;61070;50.794;7.054;2023-05-29T02:05:27;101246.06;;;14.76;82.98
72925;BME280;61070;50.794;7.054;2023-05-29T02:07:52;101247.44;;;14.52;84.51
72925;BME280;61070;50.794;7.054;2023-05-29T02:10:17;101246.53;;;14.52;84.66
72925;BME280;61070;50.794;7.054;2023-05-29T02:12:43;101249.25;;;14.49;84.56
72925;BME280;61070;50.794;7.054;2023-05-29T02:15:08;101250.22;;;14.45;84.44
72925;BME280;61070;50.794;7.054;2023-05-29T02:17:34;101252.22;;;14.32;85.36
72925;BME280;61070;50.794;7.054;2023-05-29T02:19:59;101263.06;;;14.21;85.64
72925;BME280;61070;50.794;7.054;2023-05-29T02:22:24;101253.56;;;14.07;86.58
72925;BME280;61070;50.794;7.054;2023-05-29T02:24:50;101268.75;;;14.00;86.61
72925;BME280;61070;50.794;7.054;2023-05-29T02:27:15;101271.59;;;13.89;87.18
72925;BME280;61070;50.794;7.054;2023-05-29T02:29:40;101272.44;;;13.91;86.87
72925;BME280;61070;50.794;7.054;2023-05-29T02:32:06;101274.09;;;14.00;86.45
72925;BME280;61070;50.794;7.054;2023-05-29T02:34:31;101279.63;;;13.88;86.65
72925;BME280;61070;50.794;7.054;2023-05-29T02:36:56;101276.97;;;13.88;86.45
72925;BME280;61070;50.794;7.054;2023-05-29T02:39:22;101277.06;;;13.82;86.45
72925;BME280;61070;50.794;7.054;2023-05-29T02:41:47;101280.63;;;13.79;86.57
72925;BME280;61070;50.794;7.054;2023-05-29T02:44:12;101286.38;;;13.53;87.38
72925;BME280;61070;50.794;7.054;2023-05-29T02:46:38;101282.66;;;13.63;87.18
72925;BME280;61070;50.794;7.054;2023-05-29T02:49:03;101291.44;;;13.72;86.35
72925;BME280;61070;50.794;7.054;2023-05-29T02:51:28;101282.72;;;13.59;86.48
72925;BME280;61070;50.794;7.054;2023-05-29T02:53:53;101294.28;;;13.58;86.25
72925;BME280;61070;50.794;7.054;2023-05-29T02:56:19;101295.84;;;13.73;84.97
72925;BME280;61070;50.794;7.054;2023-05-29T02:58:51;101288.09;;;13.56;85.35
72925;BME280;61070;50.794;7.054;2023-05-29T03:01:17;101296.28;;;13.42;85.95
72925;BME280;61070;50.794;7.054;2023-05-29T03:03:42;101293.88;;;13.25;86.88
72925;BME280;61070;50.794;7.054;2023-05-29T03:06:08;101298.56;;;13.03;88.06
72925;BME280;61070;50.794;7.054;2023-05-29T03:08:35;101300.22;;;13.10;87.31
72925;BME280;61070;50.794;7.054;2023-05-29T03:11:05;101293.19;;;13.06;87.34
72925;BME280;61070;50.794;7.054;2023-05-29T03:13:31;101298.56;;;13.03;87.59
72925;BME280;61070;50.794;7.054;2023-05-29T03:15:59;101300.16;;;13.13;86.87
72925;BME280;61070;50.794;7.054;2023-05-29T03:18:24;101303.75;;;13.11;86.92
72925;BME280;61070;50.794;7.054;2023-05-29T03:20:50;101301.22;;;13.00;87.16
72925;BME280;61070;50.794;7.054;2023-05-29T03:23:15;101307.50;;;12.96;87.24
72925;BME280;61070;50.794;7.054;2023-05-29T03:25:40;101311.88;;;13.00;86.88
72925;BME280;61070;50.794;7.054;2023-05-29T03:28:06;101316.41;;;12.92;87.38
72925;BME280;61070;50.794;7.054;2023-05-29T03:30:31;101319.16;;;12.85;87.35
72925;BME280;61070;50.794;7.054;2023-05-29T03:32:56;101318.31;;;12.81;87.36
72925;BME280;61070;50.794;7.054;2023-05-29T03:35:22;101321.72;;;12.94;86.65
72925;BME280;61070;50.794;7.054;2023-05-29T03:37:47;101312.84;;;12.93;86.58
72925;BME280;61070;50.794;7.054;2023-05-29T03:40:12;101319.13;;;12.88;87.40
72925;BME280;61070;50.794;7.054;2023-05-29T03:42:37;101330.66;;;12.85;86.99
72925;BME280;61070;50.794;7.054;2023-05-29T03:45:03;101327.88;;;12.96;86.55
72925;BME280;61070;50.794;7.054;2023-05-29T03:47:28;101322.56;;;12.97;86.68
72925;BME280;61070;50.794;7.054;2023-05-29T03:49:54;101323.44;;;12.96;86.50
72925;BME280;61070;50.794;7.054;2023-05-29T03:52:20;101331.31;;;13.05;86.18
72925;BME280;61070;50.794;7.054;2023-05-29T03:54:45;101325.91;;;13.11;86.16
72925;BME280;61070;50.794;7.054;2023-05-29T03:57:10;101342.94;;;12.97;86.25
72925;BME280;61070;50.794;7.054;2023-05-29T03:59:36;101340.31;;;12.95;86.52
72925;BME280;61070;50.794;7.054;2023-05-29T04:02:02;101345.81;;;12.80;87.19
72925;BME280;61070;50.794;7.054;2023-05-29T04:04:27;101349.31;;;12.82;87.56
72925;BME280;61070;50.794;7.054;2023-05-29T04:06:53;101353.81;;;12.75;87.77
72925;BME280;61070;50.794;7.054;2023-05-29T04:09:18;101342.03;;;12.98;86.69
72925;BME280;61070;50.794;7.054;2023-05-29T04:11:43;101343.00;;;12.92;86.97
72925;BME280;61070;50.794;7.054;2023-05-29T04:14:09;101341.28;;;12.87;87.32
72925;BME280;61070;50.794;7.054;2023-05-29T04:16:35;101357.31;;;12.82;87.26
72925;BME280;61070;50.794;7.054;2023-05-29T04:19:00;101351.88;;;12.91;87.07
72925;BME280;61070;50.794;7.054;2023-05-29T04:21:25;101358.03;;;12.96;87.08
72925;BME280;61070;50.794;7.054;2023-05-29T04:23:52;101358.88;;;12.98;86.65
72925;BME280;61070;50.794;7.054;2023-05-29T04:26:17;101358.19;;;12.81;87.40
72925;BME280;61070;50.794;7.054;2023-05-29T04:28:43;101365.25;;;12.83;87.02
72925;BME280;61070;50.794;7.054;2023-05-29T04:31:08;101366.28;;;12.70;87.96
72925;BME280;61070;50.794;7.054;2023-05-29T04:33:39;101358.91;;;12.97;86.87
72925;BME280;61070;50.794;7.054;2023-05-29T04:36:05;101369.53;;;12.97;87.10
72925;BME280;61070;50.794;7.054;2023-05-29T04:38:30;101374.03;;;12.92;87.00
72925;BME280;61070;50.794;7.054;2023-05-29T04:40:56;101373.03;;;13.00;86.80
72925;BME280;61070;50.794;7.054;2023-05-29T04:43:23;101380.16;;;12.98;86.87
72925;BME280;61070;50.794;7.054;2023-05-29T04:45:51;101381.13;;;12.91;86.69
72925;BME280;61070;50.794;7.054;2023-05-29T04:48:17;101380.22;;;12.94;86.62
72925;BME280;61070;50.794;7.054;2023-05-29T04:50:42;101381.03;;;12.99;86.66
72925;BME280;61070;50.794;7.054;2023-05-29T04:53:07;101377.31;;;13.15;86.28
72925;BME280;61070;50.794;7.054;2023-05-29T04:55:33;101383.50;;;13.20;85.43
72925;BME280;61070;50.794;7.054;2023-05-29T04:57:58;101393.31;;;13.10;85.77
72925;BME280;61070;50.794;7.054;2023-05-29T05:00:23;101395.84;;;13.26;85.33
72925;BME280;61070;50.794;7.054;2023-05-29T05:02:50;101396.69;;;13.29;84.98
72925;BME280;61070;50.794;7.054;2023-05-29T05:05:16;101389.66;;;13.24;85.08
72925;BME280;61070;50.794;7.054;2023-05-29T05:07:41;101399.47;;;13.20;85.01
72925;BME280;61070;50.794;7.054;2023-05-29T05:10:07;101399.38;;;13.28;84.59
72925;BME280;61070;50.794;7.054;2023-05-29T05:12:32;101394.59;;;13.54;83.78
72925;BME280;61070;50.794;7.054;2023-05-29T05:14:58;101392.03;;;13.47;84.14
72925;BME280;61070;50.794;7.054;2023-05-29T05:17:23;101396.25;;;13.64;83.18
72925;BME280;61070;50.794;7.054;2023-05-29T05:19:48;101397.22;;;13.57;83.15
72925;BME280;61070;50.794;7.054;2023-05-29T05:22:14;101399.72;;;13.69;82.16
72925;BME280;61070;50.794;7.054;2023-05-29T05:24:40;101404.59;;;13.35;83.42
72925;BME280;61070;50.794;7.054;2023-05-29T05:27:05;101405.75;;;13.08;84.48
72925;BME280;61070;50.794;7.054;2023-05-29T05:29:30;101402.91;;;13.30;84.37
72925;BME280;61070;50.794;7.054;2023-05-29T05:31:56;101400.13;;;13.39;83.89
72925;BME280;61070;50.794;7.054;2023-05-29T05:34:21;101400.91;;;13.49;82.84
72925;BME280;61070;50.794;7.054;2023-05-29T05:36:47;101405.16;;;13.62;82.98
72925;BME280;61070;50.794;7.054;2023-05-29T05:39:12;101406.03;;;13.62;82.69
72925;BME280;61070;50.794;7.054;2023-05-29T05:41:37;101410.22;;;13.80;82.47
72925;BME280;61070;50.794;7.054;2023-05-29T05:44:02;101411.97;;;13.84;81.56
72925;BME280;61070;50.794;7.054;2023-05-29T05:46:28;101411.34;;;13.64;82.36
72925;BME280;61070;50.794;7.054;2023-05-29T05:48:53;101428.88;;;13.79;82.24
72925;BME280;61070;50.794;7.054;2023-05-29T05:51:22;101424.47;;;13.78;81.62
72925;BME280;61070;50.794;7.054;2023-05-29T05:53:47;101413.66;;;13.88;81.39
72925;BME280;61070;50.794;7.054;2023-05-29T05:56:12;101413.25;;;13.53;82.57
72925;BME280;61070;50.794;7.054;2023-05-29T05:58:41;101409.31;;;13.81;80.99
72925;BME280;61070;50.794;7.054;2023-05-29T06:01:07;101411.88;;;13.89;81.07
72925;BME280;61070;50.794;7.054;2023-05-29T06:03:33;101418.06;;;13.91;80.78
72925;BME280;61070;50.794;7.054;2023-05-29T06:05:59;101413.66;;;13.90;81.19
72925;BME280;61070;50.794;7.054;2023-05-29T06:08:25;101416.09;;;14.05;80.05
72925;BME280;61070;50.794;7.054;2023-05-29T06:10:50;101426.00;;;13.95;80.26
72925;BME280;61070;50.794;7.054;2023-05-29T06:13:15;101440.88;;;14.10;80.66
72925;BME280;61070;50.794;7.054;2023-05-29T06:15:42;101428.34;;;14.18;80.25
72925;BME280;61070;50.794;7.054;2023-05-29T06:18:08;101428.31;;;14.20;79.86
72925;BME280;61070;50.794;7.054;2023-05-29T06:20:33;101432.66;;;14.25;80.06
72925;BME280;61070;50.794;7.054;2023-05-29T06:22:58;101434.75;;;14.04;80.19
72925;BME280;61070;50.794;7.054;2023-05-29T06:25:24;101436.38;;;14.14;79.29
72925;BME280;61070;50.794;7.054;2023-05-29T06:27:58;101433.88;;;14.03;80.34
72925;BME280;61070;50.794;7.054;2023-05-29T06:30:23;101436.22;;;14.24;80.21
72925;BME280;61070;50.794;7.054;2023-05-29T06:32:48;101437.88;;;14.33;78.75
72925;BME280;61070;50.794;7.054;2023-05-29T06:35:14;101441.19;;;14.49;79.36
72925;BME280;61070;50.794;7.054;2023-05-29T06:37:39;101441.19;;;14.52;78.91
72925;BME280;61070;50.794;7.054;2023-05-29T06:40:05;101440.91;;;14.67;77.99
72925;BME280;61070;50.794;7.054;2023-05-29T06:42:30;101435.84;;;14.52;78.46
72925;BME280;61070;50.794;7.054;2023-05-29T06:44:55;101443.19;;;14.35;78.34
72925;BME280;61070;50.794;7.054;2023-05-29T06:47:21;101447.50;;;14.45;79.41
72925;BME280;61070;50.794;7.054;2023-05-29T06:49:46;101437.72;;;14.44;79.07
72925;BME280;61070;50.794;7.054;2023-05-29T06:52:11;101444.69;;;14.54;79.20
72925;BME280;61070;50.794;7.054;2023-05-29T06:54:37;101440.84;;;14.70;78.20
72925;BME280;61070;50.794;7.054;2023-05-29T06:57:02;101443.09;;;14.96;77.86
72925;BME280;61070;50.794;7.054;2023-05-29T06:59:27;101438.16;;;15.21;76.24
72925;BME280;61070;50.794;7.054;2023-05-29T07:01:52;101436.06;;;14.91;77.01
72925;BME280;61070;50.794;7.054;2023-05-29T07:04:18;101442.03;;;15.03;76.84
72925;BME280;61070;50.794;7.054;2023-05-29T07:06:43;101437.28;;;15.21;76.20
72925;BME280;61070;50.794;7.054;2023-05-29T07:09:08;101441.97;;;15.08;76.69
72925;BME280;61070;50.794;7.054;2023-05-29T07:11:33;101440.47;;;15.39;75.63
72925;BME280;61070;50.794;7.054;2023-05-29T07:13:59;101448.94;;;15.63;74.47
72925;BME280;61070;50.794;7.054;2023-05-29T07:16:25;101446.25;;;15.64;74.22
72925;BME280;61070;50.794;7.054;2023-05-29T07:18:50;101447.59;;;15.40;74.18
72925;BME280;61070;50.794;7.054;2023-05-29T07:21:17;101448.22;;;15.53;74.79
72925;BME280;61070;50.794;7.054;2023-05-29T07:23:42;101449.59;;;15.28;75.59
72925;BME280;61070;50.794;7.054;2023-05-29T07:26:07;101449.59;;;15.29;75.15
72925;BME280;61070;50.794;7.054;2023-05-29T07:28:32;101443.38;;;15.27;75.27
72925;BME280;61070;50.794;7.054;2023-05-29T07:30:58;101457.56;;;15.31;74.93
72925;BME280;61070;50.794;7.054;2023-05-29T07:33:23;101447.41;;;15.48;74.74
72925;BME280;61070;50.794;7.054;2023-05-29T07:35:48;101447.97;;;15.67;74.40
72925;BME280;61070;50.794;7.054;2023-05-29T07:38:14;101441.94;;;15.56;73.99
72925;BME280;61070;50.794;7.054;2023-05-29T07:40:39;101448.03;;;15.62;74.29
72925;BME280;61070;50.794;7.054;2023-05-29T07:43:04;101437.31;;;16.06;73.66
72925;BME280;61070;50.794;7.054;2023-05-29T07:45:30;101445.88;;;15.81;73.09
72925;BME280;61070;50.794;7.054;2023-05-29T07:47:55;101440.81;;;16.08;71.76
72925;BME280;61070;50.794;7.054;2023-05-29T07:50:20;101443.41;;;16.12;72.01
72925;BME280;61070;50.794;7.054;2023-05-29T07:52:45;101454.59;;;16.28;72.26
72925;BME280;61070;50.794;7.054;2023-05-29T07:55:11;101450.41;;;16.53;70.02
72925;BME280;61070;50.794;7.054;2023-05-29T07:57:36;101456.75;;;16.86;70.03
72925;BME280;61070;50.794;7.054;2023-05-29T08:00:02;101456.75;;;16.88;68.95
72925;BME280;61070;50.794;7.054;2023-05-29T08:02:33;101454.03;;;16.52;69.60
72925;BME280;61070;50.794;7.054;2023-05-29T08:04:58;101451.84;;;16.70;69.76
72925;BME280;61070;50.794;7.054;2023-05-29T08:07:24;101454.63;;;16.65;70.47
72925;BME280;61070;50.794;7.054;2023-05-29T08:09:49;101456.06;;;16.80;69.47
72925;BME280;61070;50.794;7.054;2023-05-29T08:12:14;101459.38;;;16.90;69.08
72925;BME280;61070;50.794;7.054;2023-05-29T08:14:40;101461.75;;;16.65;68.94
72925;BME280;61070;50.794;7.054;2023-05-29T08:17:05;101459.22;;;16.96;67.61
72925;BME280;61070;50.794;7.054;2023-05-29T08:19:31;101462.97;;;17.21;66.53
72925;BME280;61070;50.794;7.054;2023-05-29T08:21:56;101459.94;;;17.35;66.33
72925;BME280;61070;50.794;7.054;2023-05-29T08:24:22;101459.19;;;17.30;66.30
72925;BME280;61070;50.794;7.054;2023-05-29T08:26:47;101455.69;;;17.28;66.28
72925;BME280;61070;50.794;7.054;2023-05-29T08:29:12;101450.03;;;17.38;66.55
72925;BME280;61070;50.794;7.054;2023-05-29T08:31:37;101452.53;;;17.12;66.01
72925;BME280;61070;50.794;7.054;2023-05-29T08:34:03;101456.56;;;17.28;66.23
72925;BME280;61070;50.794;7.054;2023-05-29T08:36:28;101451.47;;;17.50;64.89
72925;BME280;61070;50.794;7.054;2023-05-29T08:38:53;101447.50;;;17.63;66.05
72925;BME280;61070;50.794;7.054;2023-05-29T08:41:36;101439.19;;;17.74;65.23
72925;BME280;61070;50.794;7.054;2023-05-29T08:44:04;101441.81;;;17.75;65.32
72925;BME280;61070;50.794;7.054;2023-05-29T08:46:33;101443.97;;;18.23;63.44
72925;BME280;61070;50.794;7.054;2023-05-29T08:48:59;101440.59;;;17.87;63.18
72925;BME280;61070;50.794;7.054;2023-05-29T08:51:30;101444.25;;;17.85;63.28
72925;BME280;61070;50.794;7.054;2023-05-29T08:53:56;101447.25;;;18.31;63.40
72925;BME280;61070;50.794;7.054;2023-05-29T08:56:22;101446.13;;;18.67;62.12
72925;BME280;61070;50.794;7.054;2023-05-29T08:58:48;101449.47;;;18.47;61.63
72925;BME280;61070;50.794;7.054;2023-05-29T09:01:14;101446.63;;;18.23;61.77
72925;BME280;61070;50.794;7.054;2023-05-29T09:03:39;101450.69;;;18.63;61.17
72925;BME280;61070;50.794;7.054;2023-05-29T09:06:07;101452.59;;;18.87;59.94
72925;BME280;61070;50.794;7.054;2023-05-29T09:08:33;101444.44;;;18.64;60.70
72925;BME280;61070;50.794;7.054;2023-05-29T09:10:59;101435.16;;;18.74;60.16
72925;BME280;61070;50.794;7.054;2023-05-29T09:13:24;101441.66;;;19.18;59.75
72925;BME280;61070;50.794;7.054;2023-05-29T09:15:49;101446.41;;;18.85;60.24
72925;BME280;61070;50.794;7.054;2023-05-29T09:18:17;101444.91;;;19.03;59.60
72925;BME280;61070;50.794;7.054;2023-05-29T09:20:43;101440.09;;;19.36;59.41
72925;BME280;61070;50.794;7.054;2023-05-29T09:23:09;101439.47;;;19.30;58.28
72925;BME280;61070;50.794;7.054;2023-05-29T09:25:39;101432.69;;;19.43;58.93
72925;BME280;61070;50.794;7.054;2023-05-29T09:28:06;101430.13;;;19.65;58.10
72925;BME280;61070;50.794;7.054;2023-05-29T09:30:37;101446.25;;;19.88;57.58
72925;BME280;61070;50.794;7.054;2023-05-29T09:33:03;101436.22;;;19.93;56.67
72925;BME280;61070;50.794;7.054;2023-05-29T09:35:43;101448.13;;;19.63;56.57
72925;BME280;61070;50.794;7.054;2023-05-29T09:38:18;101440.53;;;19.74;57.31
72925;BME280;61070;50.794;7.054;2023-05-29T09:40:44;101441.84;;;20.09;56.92
72925;BME280;61070;50.794;7.054;2023-05-29T09:43:14;101430.03;;;20.13;55.49
72925;BME280;61070;50.794;7.054;2023-05-29T09:45:43;101442.75;;;19.86;56.25
72925;BME280;61070;50.794;7.054;2023-05-29T09:48:16;101440.75;;;19.91;57.60
72925;BME280;61070;50.794;7.054;2023-05-29T09:50:43;101430.38;;;19.82;56.03
72925;BME280;61070;50.794;7.054;2023-05-29T09:55:46;101441.13;;;20.49;55.34
72925;BME280;61070;50.794;7.054;2023-05-29T09:58:14;101440.75;;;20.58;54.83
72925;BME280;61070;50.794;7.054;2023-05-29T10:00:41;101426.63;;;20.75;54.50
72925;BME280;61070;50.794;7.054;2023-05-29T10:03:07;101445.91;;;20.64;54.77
72925;BME280;61070;50.794;7.054;2023-05-29T10:05:32;101434.69;;;20.75;54.51
72925;BME280;61070;50.794;7.054;2023-05-29T10:07:59;101440.00;;;20.77;54.46
72925;BME280;61070;50.794;7.054;2023-05-29T10:10:27;101425.75;;;20.75;53.60
72925;BME280;61070;50.794;7.054;2023-05-29T10:12:53;101427.50;;;20.96;53.43
72925;BME280;61070;50.794;7.054;2023-05-29T10:15:20;101431.53;;;21.06;54.24
72925;BME280;61070;50.794;7.054;2023-05-29T10:17:53;101428.31;;;20.98;53.84
72925;BME280;61070;50.794;7.054;2023-05-29T10:20:22;101424.81;;;21.37;53.16
72925;BME280;61070;50.794;7.054;2023-05-29T10:22:50;101427.50;;;21.16;53.12
72925;BME280;61070;50.794;7.054;2023-05-29T10:25:18;101421.56;;;21.49;53.06
72925;BME280;61070;50.794;7.054;2023-05-29T10:27:45;101422.81;;;21.42;53.11
72925;BME280;61070;50.794;7.054;2023-05-29T10:38:31;101438.34;;;21.74;52.41
72925;BME280;61070;50.794;7.054;2023-05-29T10:43:53;101426.22;;;21.45;52.94
72925;BME280;61070;50.794;7.054;2023-05-29T10:46:19;101425.81;;;21.73;52.37
72925;BME280;61070;50.794;7.054;2023-05-29T10:48:44;101422.41;;;21.70;52.76
72925;BME280;61070;50.794;7.054;2023-05-29T10:51:25;101416.88;;;21.92;52.10
72925;BME280;61070;50.794;7.054;2023-05-29T10:53:50;101417.09;;;21.68;51.99
72925;BME280;61070;50.794;7.054;2023-05-29T10:56:23;101402.44;;;21.93;52.50
72925;BME280;61070;50.794;7.054;2023-05-29T10:58:56;101408.91;;;22.62;50.44
72925;BME280;61070;50.794;7.054;2023-05-29T11:01:23;101398.88;;;22.47;50.45
72925;BME280;61070;50.794;7.054;2023-05-29T11:04:35;101400.16;;;21.46;52.29
72925;BME280;61070;50.794;7.054;2023-05-29T11:06:52;101396.69;;;22.00;51.99
72925;BME280;61070;50.794;7.054;2023-05-29T11:09:34;101401.13;;;22.01;51.83
72925;BME280;61070;50.794;7.054;2023-05-29T11:12:23;101402.41;;;22.30;51.00
72925;BME280;61070;50.794;7.054;2023-05-29T11:15:09;101402.25;;;22.70;50.19
72925;BME280;61070;50.794;7.054;2023-05-29T11:20:06;101397.78;;;22.15;51.23
72925;BME280;61070;50.794;7.054;2023-05-29T11:23:00;101404.03;;;21.97;51.30
72925;BME280;61070;50.794;7.054;2023-05-29T11:25:28;101396.03;;;21.76;50.92
72925;BME280;61070;50.794;7.054;2023-05-29T11:27:54;101399.31;;;21.64;51.18
72925;BME280;61070;50.794;7.054;2023-05-29T11:30:20;101390.88;;;22.10;51.45
72925;BME280;61070;50.794;7.054;2023-05-29T11:32:47;101393.69;;;21.88;50.82
72925;BME280;61070;50.794;7.054;2023-05-29T11:35:13;101385.38;;;22.47;50.63
72925;BME280;61070;50.794;7.054;2023-05-29T11:37:43;101388.88;;;22.32;50.44
72925;BME280;61070;50.794;7.054;2023-05-29T11:40:11;101386.38;;;22.81;50.08
72925;BME280;61070;50.794;7.054;2023-05-29T11:42:41;101384.13;;;22.72;49.07
72925;BME280;61070;50.794;7.054;2023-05-29T11:45:11;101366.97;;;22.55;49.55
72925;BME280;61070;50.794;7.054;2023-05-29T11:50:21;101378.66;;;22.56;50.25
72925;BME280;61070;50.794;7.054;2023-05-29T11:52:47;101380.56;;;22.54;50.44
72925;BME280;61070;50.794;7.054;2023-05-29T11:55:12;101367.41;;;23.00;49.42
72925;BME280;61070;50.794;7.054;2023-05-29T11:57:37;101375.16;;;22.71;49.64
72925;BME280;61070;50.794;7.054;2023-05-29T12:00:04;101364.19;;;23.09;49.71
72925;BME280;61070;50.794;7.054;2023-05-29T12:02:32;101362.78;;;22.67;49.63
72925;BME280;61070;50.794;7.054;2023-05-29T12:05:05;101364.53;;;23.03;49.70
72925;BME280;61070;50.794;7.054;2023-05-29T12:07:33;101361.72;;;22.70;49.27
72925;BME280;61070;50.794;7.054;2023-05-29T12:10:14;101369.47;;;22.24;50.66
72925;BME280;61070;50.794;7.054;2023-05-29T12:12:40;101366.09;;;22.72;50.04
72925;BME280;61070;50.794;7.054;2023-05-29T12:15:07;101366.34;;;22.85;48.73
72925;BME280;61070;50.794;7.054;2023-05-29T12:17:34;101371.28;;;22.77;48.69
72925;BME280;61070;50.794;7.054;2023-05-29T12:20:00;101367.53;;;22.79;49.56
72925;BME280;61070;50.794;7.054;2023-05-29T12:22:37;101359.22;;;23.01;49.13
72925;BME280;61070;50.794;7.054;2023-05-29T12:27:34;101368.47;;;22.61;49.16
72925;BME280;61070;50.794;7.054;2023-05-29T12:30:07;101366.06;;;22.91;48.10
72925;BME280;61070;50.794;7.054;2023-05-29T12:32:38;101358.25;;;23.02;48.83
72925;BME280;61070;50.794;7.054;2023-05-29T12:38:04;101366.00;;;23.26;47.13
72925;BME280;61070;50.794;7.054;2023-05-29T12:40:31;101363.28;;;23.26;47.66
72925;BME280;61070;50.794;7.054;2023-05-29T12:43:00;101363.47;;;23.22;47.30
72925;BME280;61070;50.794;7.054;2023-05-29T12:45:28;101366.06;;;22.91;48.48
72925;BME280;61070;50.794;7.054;2023-05-29T12:47:55;101361.34;;;23.12;47.69
72925;BME280;61070;50.794;7.054;2023-05-29T12:50:33;101363.78;;;23.49;48.59
72925;BME280;61070;50.794;7.054;2023-05-29T12:53:09;101367.53;;;23.14;48.12
72925;BME280;61070;50.794;7.054;2023-05-29T12:55:43;101368.63;;;23.27;47.39
72925;BME280;61070;50.794;7.054;2023-05-29T12:58:10;101369.41;;;23.29;48.28
72925;BME280;61070;50.794;7.054;2023-05-29T13:00:40;101367.75;;;23.09;47.37
72925;BME280;61070;50.794;7.054;2023-05-29T13:03:06;101358.00;;;23.40;47.11
72925;BME280;61070;50.794;7.054;2023-05-29T13:05:32;101359.28;;;23.66;46.71
72925;BME280;61070;50.794;7.054;2023-05-29T13:07:58;101355.75;;;23.48;46.10
72925;BME280;61070;50.794;7.054;2023-05-29T13:10:25;101365.59;;;24.14;45.79
72925;BME280;61070;50.794;7.054;2023-05-29T13:12:53;101352.31;;;23.77;46.98
72925;BME280;61070;50.794;7.054;2023-05-29T13:15:22;101361.22;;;23.95;46.25
72925;BME280;61070;50.794;7.054;2023-05-29T13:17:48;101354.06;;;24.26;45.48